createdAt,value
2018-08-12T00:00:38.820Z,13.70
2018-08-12T00:03:07.346Z,13.60
2018-08-12T00:05:35.861Z,13.50
2018-08-12T00:08:04.427Z,13.50
2018-08-12T00:10:33.005Z,13.40
2018-08-12T00:13:01.502Z,13.40
2018-08-12T00:15:30.151Z,13.40
2018-08-12T00:17:58.712Z,13.40
2018-08-12T00:20:27.405Z,13.30
2018-08-12T00:22:55.879Z,13.30
2018-08-12T00:25:24.733Z,13.30
2018-08-12T00:27:53.292Z,13.30
2018-08-12T00:30:21.861Z,13.30
2018-08-12T00:32:50.333Z,13.30
2018-08-12T00:35:19.500Z,13.30
2018-08-12T00:37:48.005Z,13.20
2018-08-12T00:40:17.481Z,13.20
2018-08-12T00:42:46.638Z,13.20
2018-08-12T00:45:17.920Z,13.10
2018-08-12T00:47:46.822Z,13.10
2018-08-12T00:50:16.232Z,13.10
2018-08-12T00:52:44.796Z,13.10
2018-08-12T00:55:16.165Z,13.10
2018-08-12T00:57:45.853Z,13.10
2018-08-12T01:00:17.991Z,13.00
2018-08-12T01:02:46.493Z,12.90
2018-08-12T01:05:17.069Z,13.00
2018-08-12T01:07:46.367Z,12.90
2018-08-12T01:10:15.345Z,12.90
2018-08-12T01:12:44.071Z,12.80
2018-08-12T01:15:16.435Z,12.70
2018-08-12T01:17:45.292Z,12.60
2018-08-12T01:20:19.604Z,12.60
2018-08-12T01:22:48.295Z,12.60
2018-08-12T01:25:17.045Z,12.60
2018-08-12T01:27:45.555Z,12.70
2018-08-12T01:30:17.419Z,12.60
2018-08-12T01:32:46.749Z,12.60
2018-08-12T01:35:15.714Z,12.60
2018-08-12T01:37:45.133Z,12.50
2018-08-12T01:40:14.950Z,12.50
2018-08-12T01:42:44.066Z,12.60
2018-08-12T01:45:14.692Z,12.50
2018-08-12T01:47:43.279Z,12.40
2018-08-12T01:50:13.750Z,12.40
2018-08-12T01:52:42.293Z,12.40
2018-08-12T01:55:10.801Z,12.40
2018-08-12T01:57:39.328Z,12.20
2018-08-12T02:00:11.066Z,12.20
2018-08-12T02:02:39.562Z,12.20
2018-08-12T02:05:08.254Z,12.20
2018-08-12T02:07:36.743Z,12.10
2018-08-12T02:10:07.091Z,12.10
2018-08-12T02:12:35.547Z,12.10
2018-08-12T02:15:04.920Z,12.10
2018-08-12T02:17:33.426Z,12.10
2018-08-12T02:20:02.205Z,12.10
2018-08-12T02:22:30.710Z,12.10
2018-08-12T02:24:59.310Z,12.10
2018-08-12T02:27:27.781Z,12.10
2018-08-12T02:29:56.522Z,12.00
2018-08-12T02:32:25.080Z,11.90
2018-08-12T02:34:53.598Z,11.90
2018-08-12T02:37:22.125Z,11.80
2018-08-12T02:39:50.696Z,11.90
2018-08-12T02:42:19.201Z,11.90
2018-08-12T02:44:47.868Z,11.90
2018-08-12T02:47:16.378Z,11.90
2018-08-12T02:49:44.835Z,11.80
2018-08-12T02:52:13.375Z,11.80
2018-08-12T02:54:41.887Z,11.70
2018-08-12T02:57:10.383Z,11.70
2018-08-12T02:59:38.810Z,11.60
2018-08-12T03:02:07.312Z,11.60
2018-08-12T03:04:35.945Z,11.60
2018-08-12T03:07:05.018Z,11.60
2018-08-12T03:09:33.535Z,11.60
2018-08-12T03:12:02.034Z,11.50
2018-08-12T03:14:30.594Z,11.50
2018-08-12T03:16:59.094Z,11.50
2018-08-12T03:19:27.658Z,11.50
2018-08-12T03:21:56.187Z,11.50
2018-08-12T03:24:24.654Z,11.50
2018-08-12T03:26:53.142Z,11.50
2018-08-12T03:29:21.621Z,11.50
2018-08-12T03:31:50.129Z,11.50
2018-08-12T03:34:18.635Z,11.50
2018-08-12T03:36:47.110Z,11.40
2018-08-12T03:39:15.646Z,11.30
2018-08-12T03:41:44.128Z,11.40
2018-08-12T03:44:12.598Z,11.40
2018-08-12T03:46:41.062Z,11.40
2018-08-12T03:49:09.578Z,11.40
2018-08-12T03:51:38.050Z,11.20
2018-08-12T03:54:06.559Z,11.20
2018-08-12T03:56:35.031Z,11.20
2018-08-12T03:59:03.662Z,11.30
2018-08-12T04:01:32.155Z,11.30
2018-08-12T04:04:00.750Z,11.30
2018-08-12T04:06:29.222Z,11.20
2018-08-12T04:08:57.775Z,11.10
2018-08-12T04:11:26.287Z,11.20
2018-08-12T04:13:54.774Z,11.20
2018-08-12T04:16:23.298Z,11.00
2018-08-12T04:18:51.785Z,11.10
2018-08-12T04:21:20.295Z,11.10
2018-08-12T04:23:48.768Z,11.00
2018-08-12T04:26:17.239Z,11.00
2018-08-12T04:28:45.714Z,11.00
2018-08-12T04:31:14.217Z,11.00
2018-08-12T04:33:42.801Z,11.00
2018-08-12T04:36:11.350Z,11.00
2018-08-12T04:38:39.814Z,11.10
2018-08-12T04:41:08.811Z,11.10
2018-08-12T04:43:37.378Z,11.10
2018-08-12T04:46:05.982Z,11.10
2018-08-12T04:48:34.511Z,11.10
2018-08-12T04:51:03.015Z,11.20
2018-08-12T04:53:31.508Z,11.20
2018-08-12T04:56:00.107Z,11.30
2018-08-12T04:58:28.641Z,11.30
2018-08-12T05:00:57.153Z,11.20
2018-08-12T05:03:25.705Z,11.20
2018-08-12T05:05:58.368Z,11.20
2018-08-12T05:08:28.390Z,11.30
2018-08-12T05:10:56.933Z,11.40
2018-08-12T05:13:25.446Z,11.40
2018-08-12T05:15:53.995Z,11.40
2018-08-12T05:18:22.466Z,11.40
2018-08-12T05:20:51.002Z,11.50
2018-08-12T05:23:19.465Z,11.50
2018-08-12T05:25:47.988Z,11.60
2018-08-12T05:28:16.446Z,11.60
2018-08-12T05:30:44.960Z,11.80
2018-08-12T05:33:13.422Z,11.80
2018-08-12T05:35:41.916Z,11.90
2018-08-12T05:38:10.562Z,11.90
2018-08-12T05:40:39.097Z,12.00
2018-08-12T05:43:07.837Z,12.00
2018-08-12T05:45:36.363Z,12.20
2018-08-12T05:48:05.294Z,12.20
2018-08-12T05:50:34.049Z,12.30
2018-08-12T05:53:02.560Z,12.40
2018-08-12T05:55:31.130Z,12.60
2018-08-12T05:57:59.655Z,12.70
2018-08-12T06:00:28.188Z,12.80
2018-08-12T06:02:56.758Z,12.90
2018-08-12T06:05:25.225Z,13.10
2018-08-12T06:07:53.732Z,13.20
2018-08-12T06:10:22.187Z,13.40
2018-08-12T06:12:50.670Z,13.70
2018-08-12T06:15:19.200Z,14.10
2018-08-12T06:17:49.631Z,14.30
2018-08-12T06:20:18.142Z,14.40
2018-08-12T06:22:46.706Z,14.40
2018-08-12T06:25:15.282Z,14.50
2018-08-12T06:27:43.836Z,14.50
2018-08-12T06:30:13.984Z,14.90
2018-08-12T06:32:42.560Z,16.00
2018-08-12T06:35:11.954Z,17.40
2018-08-12T06:37:40.488Z,18.20
2018-08-12T06:40:11.438Z,18.90
2018-08-12T06:42:41.476Z,19.60
2018-08-12T06:45:12.509Z,20.30
2018-08-12T06:47:41.373Z,20.80
2018-08-12T06:50:10.468Z,21.30
2018-08-12T06:52:39.814Z,22.10
2018-08-12T06:55:09.856Z,22.60
2018-08-12T06:57:38.427Z,23.90
2018-08-12T07:00:08.799Z,24.00
2018-08-12T07:02:37.634Z,23.50
2018-08-12T07:05:07.956Z,23.60
2018-08-12T07:07:36.639Z,24.50
2018-08-12T07:10:08.618Z,24.30
2018-08-12T07:12:37.155Z,25.40
2018-08-12T07:15:08.473Z,26.20
2018-08-12T07:17:36.959Z,26.20
2018-08-12T07:20:07.220Z,26.90
2018-08-12T07:22:35.918Z,27.00
2018-08-12T07:25:04.943Z,26.80
2018-08-12T07:27:33.416Z,26.90
2018-08-12T07:30:01.931Z,26.90
2018-08-12T07:32:30.489Z,27.50
2018-08-12T07:34:59.040Z,27.60
2018-08-12T07:37:27.587Z,27.80
2018-08-12T07:39:56.191Z,27.90
2018-08-12T07:42:24.713Z,27.30
2018-08-12T07:44:53.212Z,27.40
2018-08-12T07:47:21.757Z,27.50
2018-08-12T07:49:50.280Z,27.60
2018-08-12T07:52:18.774Z,28.40
2018-08-12T07:54:47.713Z,28.60
2018-08-12T07:57:16.256Z,29.50
2018-08-12T07:59:44.799Z,28.20
2018-08-12T08:02:13.334Z,28.40
2018-08-12T08:04:41.982Z,29.30
2018-08-12T08:07:10.497Z,29.90
2018-08-12T08:09:39.413Z,30.30
2018-08-12T08:12:07.978Z,30.70
2018-08-12T08:14:36.586Z,30.10
2018-08-12T08:17:05.398Z,30.10
2018-08-12T08:19:33.959Z,30.40
2018-08-12T08:22:02.703Z,31.00
2018-08-12T08:24:31.270Z,30.80
2018-08-12T08:27:00.040Z,30.00
2018-08-12T08:29:28.748Z,29.60
2018-08-12T08:31:57.565Z,29.40
2018-08-12T08:34:25.862Z,29.50
2018-08-12T08:36:54.511Z,29.80
2018-08-12T08:39:23.118Z,31.10
2018-08-12T08:41:51.694Z,32.50
2018-08-12T08:44:20.275Z,32.00
2018-08-12T08:46:48.834Z,31.60
2018-08-12T08:49:17.443Z,31.40
2018-08-12T08:51:45.994Z,31.50
2018-08-12T08:54:14.472Z,31.70
2018-08-12T08:56:43.008Z,32.10
2018-08-12T08:59:11.536Z,31.40
2018-08-12T09:01:40.035Z,30.80
2018-08-12T09:04:08.578Z,31.90
2018-08-12T09:06:37.051Z,30.70
2018-08-12T09:09:10.938Z,30.70
2018-08-12T09:11:39.350Z,31.40
2018-08-12T09:14:08.017Z,31.80
2018-08-12T09:16:36.590Z,31.80
2018-08-12T09:19:05.318Z,32.70
2018-08-12T09:21:34.013Z,33.00
2018-08-12T09:24:02.682Z,32.30
2018-08-12T09:26:31.206Z,32.50
2018-08-12T09:28:59.746Z,32.60
2018-08-12T09:31:28.406Z,33.20
2018-08-12T09:33:56.939Z,32.60
2018-08-12T09:36:25.510Z,32.60
2018-08-12T09:38:54.062Z,31.50
2018-08-12T09:41:22.767Z,32.70
2018-08-12T09:43:51.296Z,32.60
2018-08-12T09:46:19.987Z,33.50
2018-08-12T09:48:48.558Z,33.90
2018-08-12T09:51:17.483Z,34.20
2018-08-12T09:53:46.007Z,35.00
2018-08-12T09:56:14.763Z,33.70
2018-08-12T09:58:43.327Z,34.30
2018-08-12T10:01:11.863Z,36.00
2018-08-12T10:03:40.471Z,35.50
2018-08-12T10:06:09.123Z,35.60
2018-08-12T10:08:37.617Z,36.80
2018-08-12T10:11:06.242Z,37.80
2018-08-12T10:13:34.838Z,37.00
2018-08-12T10:16:03.754Z,35.30
2018-08-12T10:18:32.645Z,35.00
2018-08-12T10:21:01.244Z,34.40
2018-08-12T10:23:29.935Z,34.80
2018-08-12T10:25:58.446Z,35.50
2018-08-12T10:28:26.997Z,35.90
2018-08-12T10:30:55.484Z,36.90
2018-08-12T10:33:23.999Z,39.90
2018-08-12T10:35:52.581Z,40.40
2018-08-12T10:38:21.160Z,39.80
2018-08-12T10:40:49.727Z,38.90
2018-08-12T10:43:18.218Z,38.80
2018-08-12T10:45:46.787Z,37.40
2018-08-12T10:48:15.346Z,35.40
2018-08-12T10:50:43.902Z,35.40
2018-08-12T10:53:12.662Z,37.40
2018-08-12T10:55:41.265Z,38.50
2018-08-12T10:58:09.871Z,38.80
2018-08-12T11:00:38.503Z,37.90
2018-08-12T11:03:07.232Z,38.10
2018-08-12T11:05:35.896Z,37.10
2018-08-12T11:08:04.540Z,34.90
2018-08-12T11:10:33.157Z,35.30
2018-08-12T11:13:01.831Z,33.30
2018-08-12T11:15:30.367Z,32.80
2018-08-12T11:17:58.967Z,31.40
2018-08-12T11:20:27.578Z,30.30
2018-08-12T11:22:56.082Z,30.60
2018-08-12T11:25:24.699Z,30.90
2018-08-12T11:27:53.392Z,30.90
2018-08-12T11:30:22.032Z,31.10
2018-08-12T11:32:50.566Z,30.20
2018-08-12T11:35:19.087Z,29.40
2018-08-12T11:37:47.638Z,28.40
2018-08-12T11:40:16.597Z,28.10
2018-08-12T11:42:45.108Z,28.40
2018-08-12T11:45:17.181Z,27.90
2018-08-12T11:47:46.758Z,27.70
2018-08-12T11:50:16.106Z,27.80
2018-08-12T11:52:45.388Z,28.00
2018-08-12T11:55:15.967Z,27.70
2018-08-12T11:57:44.675Z,27.40
2018-08-12T12:00:15.960Z,27.40
2018-08-12T12:02:46.377Z,27.60
2018-08-12T12:05:14.998Z,28.30
2018-08-12T12:07:44.146Z,28.50
2018-08-12T12:10:16.116Z,29.00
2018-08-12T12:12:45.871Z,29.00
2018-08-12T12:15:15.042Z,29.30
2018-08-12T12:17:44.262Z,28.90
2018-08-12T12:20:13.639Z,28.50
2018-08-12T12:22:43.057Z,28.40
2018-08-12T12:25:13.808Z,28.20
2018-08-12T12:27:42.464Z,28.50
2018-08-12T12:30:18.493Z,28.60
2018-08-12T12:32:47.947Z,28.60
2018-08-12T12:35:16.577Z,28.90
2018-08-12T12:37:45.159Z,29.10
2018-08-12T12:40:15.361Z,29.00
2018-08-12T12:42:44.888Z,29.30
2018-08-12T12:45:14.121Z,29.70
2018-08-12T12:47:43.234Z,29.40
2018-08-12T12:50:19.551Z,28.80
2018-08-12T12:52:49.145Z,29.10
2018-08-12T12:55:18.290Z,29.40
2018-08-12T12:57:46.988Z,29.10
2018-08-12T13:00:17.077Z,29.20
2018-08-12T13:02:46.046Z,28.60
2018-08-12T13:05:16.148Z,28.70
2018-08-12T13:07:45.837Z,28.80
2018-08-12T13:10:15.335Z,28.40
2018-08-12T13:12:48.062Z,28.50
2018-08-12T13:15:17.334Z,28.70
2018-08-12T13:17:45.998Z,28.90
2018-08-12T13:20:16.901Z,28.30
2018-08-12T13:22:46.756Z,28.00
2018-08-12T13:25:17.109Z,28.20
2018-08-12T13:27:45.969Z,28.50
2018-08-12T13:30:15.567Z,28.60
2018-08-12T13:32:45.293Z,29.00
2018-08-12T13:35:14.061Z,29.20
2018-08-12T13:37:42.799Z,29.30
2018-08-12T13:40:13.926Z,29.00
2018-08-12T13:42:43.303Z,29.20
2018-08-12T13:45:12.639Z,29.00
2018-08-12T13:47:42.889Z,29.10
2018-08-12T13:50:14.336Z,29.40
2018-08-12T13:52:42.867Z,29.60
2018-08-12T13:55:11.411Z,29.20
2018-08-12T13:57:39.985Z,28.90
2018-08-12T14:00:12.819Z,29.20
2018-08-12T14:02:42.061Z,29.10
2018-08-12T14:05:11.596Z,29.10
2018-08-12T14:07:40.171Z,29.30
2018-08-12T14:10:10.054Z,29.50
2018-08-12T14:12:39.022Z,29.70
2018-08-12T14:15:10.193Z,29.80
2018-08-12T14:17:39.277Z,29.70
2018-08-12T14:20:08.916Z,29.80
2018-08-12T14:22:37.442Z,29.90
2018-08-12T14:25:06.802Z,29.90
2018-08-12T14:27:35.294Z,30.00
2018-08-12T14:30:05.115Z,29.50
2018-08-12T14:32:33.791Z,29.50
2018-08-12T14:35:02.270Z,29.60
2018-08-12T14:37:30.788Z,29.80
2018-08-12T14:39:59.307Z,29.80
2018-08-12T14:42:28.195Z,29.80
2018-08-12T14:44:56.679Z,30.00
2018-08-12T14:47:25.246Z,30.00
2018-08-12T14:49:53.746Z,29.80
2018-08-12T14:52:22.400Z,29.20
2018-08-12T14:54:51.670Z,29.10
2018-08-12T14:57:20.231Z,29.10
2018-08-12T14:59:48.903Z,29.20
2018-08-12T15:02:17.551Z,29.30
2018-08-12T15:04:46.161Z,29.50
2018-08-12T15:07:14.729Z,29.70
2018-08-12T15:09:43.183Z,29.70
2018-08-12T15:12:11.720Z,29.80
2018-08-12T15:14:41.319Z,30.00
2018-08-12T15:17:09.902Z,30.10
2018-08-12T15:19:38.473Z,30.10
2018-08-12T15:22:07.027Z,29.90
2018-08-12T15:24:35.597Z,29.80
2018-08-12T15:27:04.163Z,29.30
2018-08-12T15:29:32.655Z,29.10
2018-08-12T15:32:01.213Z,28.90
2018-08-12T15:34:29.693Z,28.90
2018-08-12T15:36:58.320Z,29.10
2018-08-12T15:39:26.842Z,29.10
2018-08-12T15:41:55.403Z,28.90
2018-08-12T15:44:24.039Z,29.10
2018-08-12T15:46:52.544Z,28.90
2018-08-12T15:49:21.095Z,28.60
2018-08-12T15:51:49.649Z,28.70
2018-08-12T15:54:18.213Z,29.00
2018-08-12T15:56:46.735Z,29.20
2018-08-12T15:59:15.302Z,29.20
2018-08-12T16:01:43.955Z,29.30
2018-08-12T16:04:12.484Z,29.30
2018-08-12T16:06:40.977Z,29.30
2018-08-12T16:09:11.028Z,29.50
2018-08-12T16:11:39.549Z,29.40
2018-08-12T16:14:08.131Z,29.30
2018-08-12T16:16:36.669Z,29.30
2018-08-12T16:19:05.246Z,29.10
2018-08-12T16:21:33.732Z,29.20
2018-08-12T16:24:02.248Z,29.00
2018-08-12T16:26:30.790Z,29.10
2018-08-12T16:28:59.358Z,28.90
2018-08-12T16:31:27.932Z,28.90
2018-08-12T16:33:56.610Z,28.90
2018-08-12T16:36:25.300Z,28.90
2018-08-12T16:38:53.794Z,28.90
2018-08-12T16:41:22.282Z,28.90
2018-08-12T16:43:51.049Z,29.00
2018-08-12T16:46:19.594Z,29.00
2018-08-12T16:48:48.186Z,29.00
2018-08-12T16:51:16.715Z,28.70
2018-08-12T16:53:45.334Z,28.60
2018-08-12T16:56:13.973Z,28.60
2018-08-12T16:58:42.549Z,28.40
2018-08-12T17:01:11.056Z,28.30
2018-08-12T17:03:39.586Z,28.20
2018-08-12T17:06:08.144Z,28.10
2018-08-12T17:08:36.718Z,28.00
2018-08-12T17:11:05.357Z,27.90
2018-08-12T17:13:33.875Z,27.90
2018-08-12T17:16:02.392Z,27.90
2018-08-12T17:18:31.046Z,27.80
2018-08-12T17:20:59.578Z,27.60
2018-08-12T17:23:28.094Z,27.50
2018-08-12T17:25:56.669Z,27.30
2018-08-12T17:28:25.219Z,27.20
2018-08-12T17:30:53.682Z,27.30
2018-08-12T17:33:22.302Z,27.40
2018-08-12T17:35:50.791Z,27.30
2018-08-12T17:38:19.350Z,27.30
2018-08-12T17:40:47.896Z,27.20
2018-08-12T17:43:16.560Z,27.20
2018-08-12T17:45:45.036Z,27.10
2018-08-12T17:48:13.666Z,27.10
2018-08-12T17:50:42.345Z,27.00
2018-08-12T17:53:10.890Z,26.90
2018-08-12T17:55:39.601Z,26.90
2018-08-12T17:58:08.206Z,26.70
2018-08-12T18:00:36.781Z,26.60
2018-08-12T18:03:05.416Z,26.60
2018-08-12T18:05:34.074Z,26.60
2018-08-12T18:08:02.547Z,26.40
2018-08-12T18:10:31.084Z,26.30
2018-08-12T18:12:59.637Z,26.10
2018-08-12T18:15:28.214Z,26.10
2018-08-12T18:17:56.757Z,25.90
2018-08-12T18:20:25.339Z,25.90
2018-08-12T18:22:53.827Z,25.70
2018-08-12T18:25:22.624Z,25.40
2018-08-12T18:27:51.135Z,25.30
2018-08-12T18:30:19.681Z,25.10
2018-08-12T18:32:48.369Z,25.00
2018-08-12T18:35:16.862Z,24.80
2018-08-12T18:37:45.436Z,24.80
2018-08-12T18:40:13.967Z,24.70
2018-08-12T18:42:42.598Z,24.50
2018-08-12T18:45:11.147Z,24.40
2018-08-12T18:47:39.818Z,24.40
2018-08-12T18:50:09.996Z,24.20
2018-08-12T18:52:38.956Z,24.10
2018-08-12T18:55:09.146Z,23.90
2018-08-12T18:57:38.063Z,23.90
2018-08-12T19:00:08.337Z,23.80
2018-08-12T19:02:36.867Z,23.70
2018-08-12T19:05:06.828Z,23.60
2018-08-12T19:07:35.342Z,23.60
2018-08-12T19:10:04.898Z,23.40
2018-08-12T19:12:33.464Z,23.30
2018-08-12T19:15:01.948Z,23.10
2018-08-12T19:17:30.531Z,23.00
2018-08-12T19:19:59.101Z,22.90
2018-08-12T19:22:27.622Z,22.80
2018-08-12T19:24:56.079Z,22.60
2018-08-12T19:27:24.608Z,22.50
2018-08-12T19:29:53.091Z,22.40
2018-08-12T19:32:21.620Z,22.40
2018-08-12T19:34:50.356Z,22.30
2018-08-12T19:37:18.800Z,22.30
2018-08-12T19:39:47.365Z,22.10
2018-08-12T19:42:15.902Z,22.00
2018-08-12T19:44:44.467Z,22.00
2018-08-12T19:47:14.132Z,22.00
2018-08-12T19:49:42.679Z,21.90
2018-08-12T19:52:11.345Z,21.80
2018-08-12T19:54:39.823Z,21.70
2018-08-12T19:57:08.365Z,21.70
2018-08-12T19:59:36.871Z,21.60
2018-08-12T20:02:05.811Z,21.60
2018-08-12T20:04:34.317Z,21.50
2018-08-12T20:07:03.377Z,21.40
2018-08-12T20:09:31.937Z,21.50
2018-08-12T20:12:00.535Z,21.50
2018-08-12T20:14:29.043Z,21.50
2018-08-12T20:16:57.543Z,21.50
2018-08-12T20:19:26.064Z,21.40
2018-08-12T20:21:54.557Z,21.50
2018-08-12T20:24:23.108Z,21.50
2018-08-12T20:26:51.986Z,21.50
2018-08-12T20:29:20.570Z,21.50
2018-08-12T20:31:49.128Z,21.50
2018-08-12T20:34:17.608Z,21.50
2018-08-12T20:36:46.971Z,21.50
2018-08-12T20:39:15.623Z,21.30
2018-08-12T20:41:44.185Z,21.20
2018-08-12T20:44:12.790Z,20.90
2018-08-12T20:46:41.335Z,20.90
2018-08-12T20:49:09.874Z,21.10
2018-08-12T20:51:38.407Z,21.30
2018-08-12T20:54:06.932Z,21.00
2018-08-12T20:56:35.443Z,21.00
2018-08-12T20:59:04.045Z,21.10
2018-08-12T21:01:32.602Z,21.10
2018-08-12T21:04:01.115Z,21.00
2018-08-12T21:06:29.937Z,20.80
2018-08-12T21:08:58.464Z,20.70
2018-08-12T21:11:26.968Z,20.60
2018-08-12T21:13:55.522Z,20.50
2018-08-12T21:16:24.078Z,20.40
2018-08-12T21:18:52.576Z,20.40
2018-08-12T21:21:21.144Z,20.40
2018-08-12T21:23:49.794Z,20.20
2018-08-12T21:26:18.734Z,20.20
2018-08-12T21:28:47.295Z,20.00
2018-08-12T21:31:16.026Z,19.90
2018-08-12T21:33:45.106Z,19.80
2018-08-12T21:36:14.048Z,19.70
2018-08-12T21:38:42.834Z,19.70
2018-08-12T21:41:11.619Z,19.60
2018-08-12T21:43:40.150Z,19.40
2018-08-12T21:46:08.940Z,19.30
2018-08-12T21:48:37.538Z,19.20
2018-08-12T21:51:06.237Z,19.20
2018-08-12T21:53:34.825Z,19.10
2018-08-12T21:56:03.389Z,19.00
2018-08-12T21:58:31.932Z,19.00
2018-08-12T22:01:00.466Z,18.90
2018-08-12T22:03:29.098Z,18.80
2018-08-12T22:05:57.646Z,18.90
2018-08-12T22:08:26.154Z,18.80
2018-08-12T22:10:54.651Z,18.80
2018-08-12T22:13:23.180Z,18.70
2018-08-12T22:15:51.899Z,18.70
2018-08-12T22:18:20.438Z,18.60
2018-08-12T22:20:49.009Z,18.60
2018-08-12T22:23:17.506Z,18.50
2018-08-12T22:25:46.070Z,18.40
2018-08-12T22:28:14.611Z,18.50
2018-08-12T22:30:43.269Z,18.40
2018-08-12T22:33:11.789Z,18.40
2018-08-12T22:35:40.314Z,18.20
2018-08-12T22:38:08.861Z,18.10
2018-08-12T22:40:37.389Z,18.00
2018-08-12T22:43:06.722Z,17.90
2018-08-12T22:45:35.221Z,17.90
2018-08-12T22:48:04.260Z,17.80
2018-08-12T22:50:32.795Z,17.90
2018-08-12T22:53:01.346Z,17.80
2018-08-12T22:55:29.969Z,17.80
2018-08-12T22:57:58.541Z,17.80
2018-08-12T23:00:27.110Z,17.80
2018-08-12T23:02:55.712Z,17.70
2018-08-12T23:05:24.242Z,17.60
2018-08-12T23:07:52.866Z,17.60
2018-08-12T23:10:21.347Z,17.60
2018-08-12T23:12:49.862Z,17.60
2018-08-12T23:15:29.751Z,17.60
2018-08-12T23:17:58.306Z,17.60
2018-08-12T23:20:26.789Z,17.50
2018-08-12T23:22:55.266Z,17.40
2018-08-12T23:25:23.850Z,17.50
2018-08-12T23:27:52.384Z,17.40
2018-08-12T23:30:20.939Z,17.40
2018-08-12T23:32:49.489Z,17.40
2018-08-12T23:35:17.968Z,17.40
2018-08-12T23:37:46.450Z,17.40
2018-08-12T23:40:15.156Z,17.40
2018-08-12T23:42:43.676Z,17.40
2018-08-12T23:45:12.252Z,17.30
2018-08-12T23:47:40.787Z,17.20
2018-08-12T23:50:09.328Z,17.30
2018-08-12T23:52:37.824Z,17.30
2018-08-12T23:55:06.415Z,17.20
2018-08-12T23:57:34.932Z,17.20
